createdAt,value
2022-10-16T00:01:18.845Z,22.50
2022-10-16T00:03:46.703Z,22.50
2022-10-16T00:06:14.669Z,22.50
2022-10-16T00:08:43.494Z,22.50
2022-10-16T00:11:15.324Z,22.60
2022-10-16T00:13:43.450Z,22.60
2022-10-16T00:16:11.548Z,22.60
2022-10-16T00:18:39.596Z,22.70
2022-10-16T00:21:11.278Z,22.60
2022-10-16T00:23:39.943Z,22.70
2022-10-16T00:26:09.219Z,22.70
2022-10-16T00:28:37.096Z,22.70
2022-10-16T00:31:06.083Z,22.70
2022-10-16T00:33:33.837Z,22.80
2022-10-16T00:36:02.079Z,22.80
2022-10-16T00:38:30.652Z,22.80
2022-10-16T00:40:58.209Z,22.80
2022-10-16T00:43:37.641Z,22.80
2022-10-16T00:46:06.614Z,22.90
2022-10-16T00:48:34.149Z,22.90
2022-10-16T00:51:01.728Z,22.90
2022-10-16T00:53:29.493Z,22.90
2022-10-16T00:55:57.512Z,23.00
2022-10-16T00:58:25.799Z,23.00
2022-10-16T01:00:54.265Z,23.00
2022-10-16T01:03:27.062Z,23.00
2022-10-16T01:06:09.206Z,23.00
2022-10-16T01:08:53.015Z,23.00
2022-10-16T01:11:27.238Z,23.00
2022-10-16T01:13:57.395Z,23.00
2022-10-16T01:16:25.149Z,23.10
2022-10-16T01:19:11.865Z,23.10
2022-10-16T01:21:45.740Z,23.10
2022-10-16T01:24:20.029Z,23.20
2022-10-16T01:26:50.901Z,23.30
2022-10-16T01:29:48.397Z,23.30
2022-10-16T01:32:19.164Z,23.40
2022-10-16T01:34:50.070Z,23.40
2022-10-16T01:37:21.091Z,23.40
2022-10-16T01:39:49.905Z,23.40
2022-10-16T01:42:30.609Z,23.50
2022-10-16T01:44:59.257Z,23.50
2022-10-16T01:47:28.253Z,23.50
2022-10-16T01:50:05.590Z,23.50
2022-10-16T01:52:35.280Z,23.50
2022-10-16T01:55:04.293Z,23.50
2022-10-16T01:57:32.779Z,23.60
2022-10-16T02:00:03.104Z,23.60
2022-10-16T02:02:32.658Z,23.70
2022-10-16T02:05:03.298Z,23.70
2022-10-16T02:07:30.797Z,23.70
2022-10-16T02:09:59.162Z,23.70
2022-10-16T02:12:34.467Z,23.70
2022-10-16T02:15:02.333Z,23.70
2022-10-16T02:17:30.196Z,23.70
2022-10-16T02:19:58.954Z,23.70
2022-10-16T02:22:32.375Z,23.60
2022-10-16T02:25:17.600Z,23.70
2022-10-16T02:27:45.184Z,23.70
2022-10-16T02:30:19.006Z,23.70
2022-10-16T02:32:47.498Z,23.70
2022-10-16T02:35:16.545Z,23.70
2022-10-16T02:37:44.216Z,23.70
2022-10-16T02:40:11.957Z,23.80
2022-10-16T02:42:41.275Z,23.80
2022-10-16T02:45:09.794Z,23.90
2022-10-16T02:47:37.340Z,23.90
2022-10-16T02:50:05.348Z,23.90
2022-10-16T02:52:32.998Z,23.90
2022-10-16T02:55:01.360Z,23.90
2022-10-16T02:57:29.262Z,23.90
2022-10-16T02:59:56.989Z,23.90
2022-10-16T03:02:24.777Z,24.00
2022-10-16T03:04:52.307Z,24.00
2022-10-16T03:07:20.122Z,24.00
2022-10-16T03:09:48.389Z,24.10
2022-10-16T03:12:15.923Z,24.10
2022-10-16T03:14:43.492Z,24.10
2022-10-16T03:17:11.735Z,24.10
2022-10-16T03:19:39.623Z,24.20
2022-10-16T03:22:07.134Z,24.20
2022-10-16T03:24:34.709Z,24.20
2022-10-16T03:27:03.703Z,24.20
2022-10-16T03:29:32.017Z,24.30
2022-10-16T03:31:59.707Z,24.30
2022-10-16T03:34:27.345Z,24.30
2022-10-16T03:36:55.054Z,24.40
2022-10-16T03:41:52.187Z,24.50
2022-10-16T03:44:21.297Z,24.60
2022-10-16T03:46:48.847Z,24.70
2022-10-16T03:49:16.614Z,24.80
2022-10-16T03:51:44.236Z,24.80
2022-10-16T03:54:13.160Z,24.90
2022-10-16T03:56:41.018Z,24.90
2022-10-16T03:59:08.570Z,25.00
2022-10-16T04:01:36.163Z,25.00
2022-10-16T04:04:03.730Z,25.00
2022-10-16T04:06:31.356Z,25.10
2022-10-16T04:08:59.031Z,25.20
2022-10-16T04:11:27.894Z,25.20
2022-10-16T04:13:55.499Z,25.20
2022-10-16T04:16:23.025Z,25.20
2022-10-16T04:18:50.660Z,25.20
2022-10-16T04:21:19.054Z,25.20
2022-10-16T04:23:46.606Z,25.20
2022-10-16T04:26:15.082Z,25.20
2022-10-16T04:28:43.559Z,25.20
2022-10-16T04:31:11.364Z,25.20
2022-10-16T04:33:38.906Z,25.20
2022-10-16T04:36:07.519Z,25.20
2022-10-16T04:38:35.089Z,25.20
2022-10-16T04:41:02.713Z,25.30
2022-10-16T04:43:30.355Z,25.30
2022-10-16T04:45:58.296Z,25.30
2022-10-16T04:48:26.862Z,25.30
2022-10-16T04:50:55.344Z,25.30
2022-10-16T04:53:23.746Z,25.30
2022-10-16T04:55:52.100Z,25.30
2022-10-16T04:58:19.677Z,25.30
2022-10-16T05:00:48.057Z,25.40
2022-10-16T05:03:15.818Z,25.40
2022-10-16T05:05:46.855Z,25.40
2022-10-16T05:08:15.011Z,25.50
2022-10-16T05:10:46.149Z,25.60
2022-10-16T05:13:16.358Z,25.70
2022-10-16T05:15:44.709Z,25.80
2022-10-16T05:18:12.203Z,25.90
2022-10-16T05:20:39.724Z,25.90
2022-10-16T05:23:07.406Z,26.00
2022-10-16T05:25:34.907Z,26.00
2022-10-16T05:28:03.406Z,26.10
2022-10-16T05:30:31.049Z,26.10
2022-10-16T05:32:58.746Z,26.20
2022-10-16T05:35:30.537Z,26.20
2022-10-16T05:37:58.043Z,26.20
2022-10-16T05:40:25.601Z,26.20
2022-10-16T05:42:56.057Z,26.30
2022-10-16T05:45:24.069Z,26.30
2022-10-16T05:47:53.381Z,26.30
2022-10-16T05:50:21.767Z,26.30
2022-10-16T05:52:49.293Z,26.20
2022-10-16T05:55:16.972Z,26.20
2022-10-16T05:57:45.310Z,26.20
2022-10-16T06:00:13.852Z,26.20
2022-10-16T06:02:41.435Z,26.20
2022-10-16T06:05:09.032Z,26.20
2022-10-16T06:07:40.647Z,26.20
2022-10-16T06:10:08.580Z,26.20
2022-10-16T06:12:36.165Z,26.10
2022-10-16T06:15:03.847Z,26.10
2022-10-16T06:17:31.708Z,26.10
2022-10-16T06:19:59.433Z,26.10
2022-10-16T06:22:26.932Z,26.10
2022-10-16T06:24:54.437Z,26.10
2022-10-16T06:27:22.005Z,26.20
2022-10-16T06:29:49.529Z,26.20
2022-10-16T06:32:17.404Z,26.20
2022-10-16T06:34:46.642Z,26.20
2022-10-16T06:37:14.248Z,26.20
2022-10-16T06:39:41.839Z,26.10
2022-10-16T06:42:09.870Z,26.10
2022-10-16T06:44:37.339Z,26.10
2022-10-16T06:47:05.026Z,26.00
2022-10-16T06:49:32.490Z,26.10
2022-10-16T06:52:00.009Z,26.10
2022-10-16T06:54:29.753Z,26.20
2022-10-16T06:56:57.460Z,26.10
2022-10-16T06:59:24.973Z,26.20
2022-10-16T07:01:55.453Z,26.20
2022-10-16T07:04:23.797Z,26.30
2022-10-16T07:06:52.756Z,26.30
2022-10-16T07:09:20.390Z,26.40
2022-10-16T07:11:47.993Z,26.40
2022-10-16T07:14:27.454Z,26.40
2022-10-16T07:16:55.495Z,26.40
2022-10-16T07:19:23.075Z,26.50
2022-10-16T07:21:50.912Z,26.50
2022-10-16T07:24:18.844Z,26.40
2022-10-16T07:26:49.148Z,26.40
2022-10-16T07:29:18.271Z,26.50
2022-10-16T07:31:46.479Z,26.50
2022-10-16T07:34:15.058Z,26.50
2022-10-16T07:39:11.077Z,26.50
2022-10-16T07:41:38.648Z,26.50
2022-10-16T07:44:06.267Z,26.50
2022-10-16T07:46:35.284Z,26.50
2022-10-16T07:49:03.857Z,26.50
2022-10-16T07:51:32.648Z,26.50
2022-10-16T07:54:00.606Z,26.50
2022-10-16T07:56:28.212Z,26.50
2022-10-16T07:58:57.932Z,26.50
2022-10-16T08:01:25.624Z,26.50
2022-10-16T08:03:53.774Z,26.50
2022-10-16T08:06:26.709Z,26.50
2022-10-16T08:08:56.273Z,26.40
2022-10-16T08:11:24.590Z,26.40
2022-10-16T08:13:52.142Z,26.40
2022-10-16T08:16:19.811Z,26.50
2022-10-16T08:18:47.444Z,26.40
2022-10-16T08:21:20.392Z,26.40
2022-10-16T08:23:54.474Z,26.40
2022-10-16T08:26:27.012Z,26.40
2022-10-16T08:28:54.941Z,26.40
2022-10-16T08:31:22.951Z,26.40
2022-10-16T08:33:50.701Z,26.40
2022-10-16T08:36:18.202Z,26.40
2022-10-16T08:38:49.457Z,26.40
2022-10-16T08:41:16.972Z,26.30
2022-10-16T08:44:05.733Z,26.30
2022-10-16T08:46:41.217Z,26.30
2022-10-16T08:49:12.525Z,26.20
2022-10-16T08:51:43.314Z,26.20
2022-10-16T08:54:18.016Z,26.30
2022-10-16T08:56:45.538Z,26.20
2022-10-16T08:59:13.371Z,26.20
2022-10-16T09:01:44.729Z,26.20
2022-10-16T09:04:13.041Z,26.20
2022-10-16T09:06:44.721Z,26.20
2022-10-16T09:09:15.274Z,26.20
2022-10-16T09:11:49.882Z,26.20
2022-10-16T09:14:23.970Z,26.20
2022-10-16T09:16:55.288Z,26.20
2022-10-16T09:19:35.251Z,26.10
2022-10-16T09:22:12.181Z,26.10
2022-10-16T09:24:39.772Z,26.10
2022-10-16T09:27:12.144Z,26.10
2022-10-16T09:29:40.252Z,26.00
2022-10-16T09:32:22.436Z,26.00
2022-10-16T09:34:52.280Z,25.90
2022-10-16T09:37:21.822Z,25.90
2022-10-16T09:39:53.716Z,25.90
2022-10-16T09:42:23.770Z,25.90
2022-10-16T09:44:52.268Z,25.80
2022-10-16T09:47:21.695Z,25.80
2022-10-16T09:49:56.339Z,25.80
2022-10-16T09:52:24.830Z,25.80
2022-10-16T09:54:53.418Z,25.70
2022-10-16T09:57:21.791Z,25.70
2022-10-16T09:59:57.280Z,25.70
2022-10-16T10:02:40.125Z,25.70
2022-10-16T10:05:18.683Z,25.60
2022-10-16T10:07:50.401Z,25.60
2022-10-16T10:10:22.594Z,25.60
2022-10-16T10:12:51.082Z,25.50
2022-10-16T10:15:23.413Z,25.50
2022-10-16T10:17:53.689Z,25.50
2022-10-16T10:20:48.033Z,25.40
2022-10-16T10:23:28.370Z,25.40
2022-10-16T10:25:56.435Z,25.40
2022-10-16T10:28:43.183Z,25.40
2022-10-16T10:31:25.346Z,25.40
2022-10-16T10:33:58.835Z,25.30
2022-10-16T10:36:42.459Z,25.30
2022-10-16T10:39:10.741Z,25.30
2022-10-16T10:41:57.846Z,25.30
2022-10-16T10:44:25.272Z,25.30
2022-10-16T10:46:55.972Z,25.30
2022-10-16T10:49:26.592Z,25.20
2022-10-16T10:51:54.848Z,25.20
2022-10-16T10:54:45.678Z,25.20
2022-10-16T10:57:13.938Z,25.20
2022-10-16T10:59:48.320Z,25.20
2022-10-16T11:02:28.825Z,25.20
2022-10-16T11:05:00.594Z,25.10
2022-10-16T11:07:31.622Z,25.10
2022-10-16T11:10:19.260Z,25.10
2022-10-16T11:12:50.288Z,25.00
2022-10-16T11:15:23.117Z,25.00
2022-10-16T11:17:56.492Z,25.00
2022-10-16T11:20:26.188Z,25.00
2022-10-16T11:22:59.908Z,25.00
2022-10-16T11:25:27.371Z,25.00
2022-10-16T11:27:55.136Z,24.90
2022-10-16T11:30:32.944Z,24.90
2022-10-16T11:33:09.892Z,24.90
2022-10-16T11:35:52.151Z,24.90
2022-10-16T11:38:29.598Z,24.90
2022-10-16T11:41:00.087Z,24.90
2022-10-16T11:43:35.987Z,24.90
2022-10-16T11:46:19.365Z,24.90
2022-10-16T11:49:02.077Z,24.90
2022-10-16T11:51:36.385Z,24.80
2022-10-16T11:54:03.975Z,24.80
2022-10-16T11:56:33.280Z,24.80
2022-10-16T11:59:00.775Z,24.80
2022-10-16T12:01:35.371Z,24.80
2022-10-16T12:04:15.154Z,24.80
2022-10-16T12:06:45.936Z,24.80
2022-10-16T12:09:34.304Z,24.70
2022-10-16T12:12:01.971Z,24.70
2022-10-16T12:17:40.278Z,24.60
2022-10-16T12:20:14.282Z,24.60
2022-10-16T12:22:57.506Z,24.60
2022-10-16T12:25:25.785Z,24.60
2022-10-16T12:27:59.554Z,24.60
2022-10-16T12:30:30.997Z,24.60
2022-10-16T12:33:09.282Z,24.60
2022-10-16T12:35:45.390Z,24.50
2022-10-16T12:38:18.533Z,24.50
2022-10-16T12:40:48.957Z,24.50
2022-10-16T12:43:26.049Z,24.40
2022-10-16T12:46:06.005Z,24.30
2022-10-16T12:48:48.261Z,24.30
2022-10-16T12:51:24.100Z,24.30
2022-10-16T12:54:14.339Z,24.30
2022-10-16T12:56:51.150Z,24.20
2022-10-16T12:59:31.064Z,24.20
2022-10-16T13:02:17.307Z,24.20
2022-10-16T13:04:51.559Z,24.20
2022-10-16T13:07:19.435Z,24.20
2022-10-16T13:10:02.214Z,24.10
2022-10-16T13:12:42.803Z,24.10
2022-10-16T13:15:19.643Z,24.10
2022-10-16T13:17:55.450Z,24.10
2022-10-16T13:20:32.016Z,24.10
2022-10-16T13:22:59.566Z,24.10
2022-10-16T13:25:33.604Z,24.00
2022-10-16T13:28:02.492Z,24.00
2022-10-16T13:30:31.545Z,24.00
2022-10-16T13:33:09.225Z,24.00
2022-10-16T13:35:38.370Z,24.00
2022-10-16T13:38:07.594Z,24.00
2022-10-16T13:40:35.970Z,24.00
2022-10-16T13:43:04.471Z,24.00
2022-10-16T13:45:32.124Z,24.00
2022-10-16T13:48:13.604Z,24.00
2022-10-16T13:50:41.096Z,24.00
2022-10-16T13:53:13.718Z,24.00
2022-10-16T13:55:41.481Z,24.00
2022-10-16T13:58:09.949Z,24.00
2022-10-16T14:03:14.947Z,24.00
2022-10-16T14:05:49.100Z,24.00
2022-10-16T14:08:17.507Z,23.90
2022-10-16T14:10:49.683Z,24.00
2022-10-16T14:13:20.962Z,24.00
2022-10-16T14:15:51.774Z,24.00
2022-10-16T14:18:22.269Z,23.90
2022-10-16T14:20:50.537Z,24.00
2022-10-16T14:23:31.423Z,23.90
2022-10-16T14:26:11.920Z,23.90
2022-10-16T14:28:41.659Z,23.90
2022-10-16T14:31:21.615Z,23.80
2022-10-16T14:33:50.027Z,23.90
2022-10-16T14:36:22.274Z,23.90
2022-10-16T14:38:54.065Z,23.90
2022-10-16T14:41:23.841Z,23.90
2022-10-16T14:43:59.713Z,23.90
2022-10-16T14:46:33.365Z,23.90
2022-10-16T14:49:04.447Z,23.90
2022-10-16T14:51:33.165Z,23.90
2022-10-16T14:54:00.716Z,24.00
2022-10-16T14:56:33.135Z,24.00
2022-10-16T14:59:03.029Z,24.00
2022-10-16T15:01:30.523Z,24.00
2022-10-16T15:03:58.084Z,24.00
2022-10-16T15:06:26.480Z,24.00
2022-10-16T15:08:54.741Z,24.00
2022-10-16T15:11:22.271Z,24.00
2022-10-16T15:13:49.777Z,24.00
2022-10-16T15:16:18.612Z,24.00
2022-10-16T15:18:46.450Z,24.00
2022-10-16T15:21:31.230Z,24.00
2022-10-16T15:23:59.535Z,24.00
2022-10-16T15:26:29.398Z,24.00
2022-10-16T15:28:56.973Z,24.00
2022-10-16T15:31:24.727Z,24.00
2022-10-16T15:33:55.639Z,24.00
2022-10-16T15:36:27.241Z,24.00
2022-10-16T15:38:55.793Z,24.00
2022-10-16T15:41:24.406Z,24.00
2022-10-16T15:43:52.464Z,24.00
2022-10-16T15:46:21.384Z,24.00
2022-10-16T15:48:50.485Z,24.00
2022-10-16T15:51:19.497Z,24.00
2022-10-16T15:53:47.624Z,24.00
2022-10-16T15:56:16.346Z,24.00
2022-10-16T15:58:44.554Z,24.00
2022-10-16T16:01:12.775Z,24.00
2022-10-16T16:03:44.376Z,24.00
2022-10-16T16:06:13.048Z,24.00
2022-10-16T16:08:41.434Z,24.00
2022-10-16T16:11:10.135Z,24.00
2022-10-16T16:13:41.279Z,24.00
2022-10-16T16:16:10.068Z,24.00
2022-10-16T16:18:38.793Z,24.00
2022-10-16T16:21:08.417Z,24.00
2022-10-16T16:23:39.115Z,24.00
2022-10-16T16:26:14.291Z,24.00
2022-10-16T16:28:43.146Z,23.90
2022-10-16T16:31:12.392Z,23.90
2022-10-16T16:33:40.749Z,23.90
2022-10-16T16:36:14.525Z,23.90
2022-10-16T16:38:43.147Z,23.90
2022-10-16T16:41:19.062Z,23.80
2022-10-16T16:43:47.581Z,23.80
2022-10-16T16:46:15.458Z,23.80
2022-10-16T16:48:43.366Z,23.80
2022-10-16T16:51:17.159Z,23.80
2022-10-16T16:53:46.268Z,23.70
2022-10-16T16:56:13.956Z,23.80
2022-10-16T16:58:42.697Z,23.80
2022-10-16T17:01:26.552Z,23.80
2022-10-16T17:03:56.338Z,23.80
2022-10-16T17:06:25.173Z,23.80
2022-10-16T17:08:53.538Z,23.70
2022-10-16T17:11:22.678Z,23.80
2022-10-16T17:13:53.925Z,23.70
2022-10-16T17:16:29.645Z,23.80
2022-10-16T17:19:00.771Z,23.70
2022-10-16T17:21:30.838Z,23.70
2022-10-16T17:23:58.363Z,23.70
2022-10-16T17:26:27.005Z,23.70
2022-10-16T17:28:56.378Z,23.70
2022-10-16T17:31:27.278Z,23.70
2022-10-16T17:33:55.270Z,23.70
2022-10-16T17:36:23.266Z,23.70
2022-10-16T17:38:51.669Z,23.60
2022-10-16T17:41:21.443Z,23.60
2022-10-16T17:43:49.469Z,23.60
2022-10-16T17:46:18.684Z,23.60
2022-10-16T17:48:47.380Z,23.60
2022-10-16T17:51:16.793Z,23.60
2022-10-16T17:53:45.879Z,23.60
2022-10-16T17:56:14.312Z,23.60
2022-10-16T17:58:43.762Z,23.60
2022-10-16T18:01:24.029Z,23.50
2022-10-16T18:03:53.425Z,23.50
2022-10-16T18:06:22.999Z,23.50
2022-10-16T18:08:51.476Z,23.50
2022-10-16T18:11:19.501Z,23.50
2022-10-16T18:13:47.141Z,23.50
2022-10-16T18:16:16.386Z,23.60
2022-10-16T18:18:45.215Z,23.60
2022-10-16T18:21:14.592Z,23.60
2022-10-16T18:23:43.818Z,23.60
2022-10-16T18:26:14.513Z,23.60
2022-10-16T18:28:44.037Z,23.60
2022-10-16T18:31:13.806Z,23.60
2022-10-16T18:33:42.848Z,23.60
2022-10-16T18:36:10.748Z,23.60
2022-10-16T18:38:39.662Z,23.60
2022-10-16T18:41:07.456Z,23.60
2022-10-16T18:43:36.611Z,23.60
2022-10-16T18:46:05.812Z,23.60
2022-10-16T18:48:34.141Z,23.60
2022-10-16T18:51:10.925Z,23.60
2022-10-16T18:53:40.143Z,23.60
2022-10-16T18:56:08.085Z,23.60
2022-10-16T18:58:36.788Z,23.60
2022-10-16T19:01:08.621Z,23.60
2022-10-16T19:03:36.402Z,23.60
2022-10-16T19:06:04.828Z,23.60
2022-10-16T19:08:33.245Z,23.60
2022-10-16T19:11:04.826Z,23.60
2022-10-16T19:13:33.256Z,23.60
2022-10-16T19:16:19.304Z,23.60
2022-10-16T19:18:48.772Z,23.60
2022-10-16T19:21:17.571Z,23.60
2022-10-16T19:23:45.508Z,23.60
2022-10-16T19:26:15.237Z,23.50
2022-10-16T19:28:43.552Z,23.50
2022-10-16T19:31:13.714Z,23.50
2022-10-16T19:33:41.252Z,23.50
2022-10-16T19:36:19.649Z,23.50
2022-10-16T19:38:47.639Z,23.50
2022-10-16T19:41:17.665Z,23.50
2022-10-16T19:43:45.399Z,23.50
2022-10-16T19:46:17.747Z,23.40
2022-10-16T19:48:45.731Z,23.40
2022-10-16T19:51:15.677Z,23.40
2022-10-16T19:53:44.565Z,23.40
2022-10-16T19:56:13.529Z,23.40
2022-10-16T19:58:41.370Z,23.40
2022-10-16T20:01:09.027Z,23.40
2022-10-16T20:03:36.567Z,23.30
2022-10-16T20:06:07.045Z,23.40
2022-10-16T20:08:36.278Z,23.30
2022-10-16T20:11:04.446Z,23.30
2022-10-16T20:13:34.629Z,23.30
2022-10-16T20:16:07.215Z,23.30
2022-10-16T20:18:35.271Z,23.30
2022-10-16T20:21:02.908Z,23.30
2022-10-16T20:23:31.196Z,23.30
2022-10-16T20:26:04.035Z,23.30
2022-10-16T20:28:32.581Z,23.20
2022-10-16T20:31:06.288Z,23.20
2022-10-16T20:33:33.899Z,23.30
2022-10-16T20:36:02.210Z,23.30
2022-10-16T20:38:29.866Z,23.30
2022-10-16T20:41:02.856Z,23.30
2022-10-16T20:43:32.355Z,23.20
2022-10-16T20:46:01.247Z,23.20
2022-10-16T20:48:28.851Z,23.20
2022-10-16T20:50:56.418Z,23.10
2022-10-16T20:53:23.976Z,23.10
2022-10-16T20:55:52.870Z,23.10
2022-10-16T20:58:20.341Z,23.00
2022-10-16T21:00:47.897Z,23.00
2022-10-16T21:03:16.230Z,22.90
2022-10-16T21:05:43.741Z,22.90
2022-10-16T21:08:11.548Z,22.90
2022-10-16T21:10:39.094Z,22.90
2022-10-16T21:13:07.442Z,22.80
2022-10-16T21:15:34.918Z,22.80
2022-10-16T21:18:03.185Z,22.80
2022-10-16T21:20:30.720Z,22.80
2022-10-16T21:22:58.235Z,22.80
2022-10-16T21:25:25.842Z,22.70
2022-10-16T21:27:54.141Z,22.70
2022-10-16T21:30:21.638Z,22.70
2022-10-16T21:32:49.162Z,22.70
2022-10-16T21:35:17.602Z,22.70
2022-10-16T21:37:49.152Z,22.70
2022-10-16T21:40:16.726Z,22.70
2022-10-16T21:42:44.258Z,22.60
2022-10-16T21:45:11.783Z,22.70
2022-10-16T21:47:39.277Z,22.70
2022-10-16T21:50:07.032Z,22.60
2022-10-16T21:52:35.355Z,22.60
2022-10-16T21:55:05.619Z,22.60
2022-10-16T21:57:33.216Z,22.60
2022-10-16T22:00:04.249Z,22.50
2022-10-16T22:02:34.386Z,22.50
2022-10-16T22:05:01.913Z,22.50
2022-10-16T22:07:30.518Z,22.40
2022-10-16T22:09:59.014Z,22.30
2022-10-16T22:12:26.496Z,22.40
2022-10-16T22:14:54.043Z,22.30
2022-10-16T22:17:21.544Z,22.20
2022-10-16T22:19:49.066Z,22.20
2022-10-16T22:22:16.737Z,22.20
2022-10-16T22:24:46.751Z,22.10
2022-10-16T22:27:14.245Z,22.10
2022-10-16T22:29:42.634Z,22.10
2022-10-16T22:32:10.133Z,22.10
2022-10-16T22:34:37.639Z,22.10
2022-10-16T22:37:06.039Z,22.00
2022-10-16T22:39:34.352Z,22.00
2022-10-16T22:42:03.810Z,22.10
2022-10-16T22:44:32.428Z,22.10
2022-10-16T22:46:59.955Z,22.10
2022-10-16T22:49:27.846Z,22.10
2022-10-16T22:51:55.412Z,22.10
2022-10-16T22:54:22.911Z,22.10
2022-10-16T22:56:50.433Z,22.10
2022-10-16T22:59:17.951Z,22.10
2022-10-16T23:01:45.637Z,22.00
2022-10-16T23:04:13.172Z,22.00
2022-10-16T23:06:41.496Z,22.00
2022-10-16T23:09:10.838Z,22.00
2022-10-16T23:11:39.566Z,22.00
2022-10-16T23:14:07.043Z,22.00
2022-10-16T23:16:34.562Z,22.00
2022-10-16T23:19:02.194Z,22.00
2022-10-16T23:21:29.786Z,22.00
2022-10-16T23:23:57.346Z,22.00
2022-10-16T23:26:27.055Z,22.00
2022-10-16T23:28:58.470Z,21.90
2022-10-16T23:31:26.244Z,21.90
2022-10-16T23:33:54.586Z,21.90
2022-10-16T23:36:22.834Z,21.80
2022-10-16T23:38:50.768Z,21.80
2022-10-16T23:41:19.905Z,21.80
2022-10-16T23:43:48.334Z,21.80
2022-10-16T23:46:16.293Z,21.80
2022-10-16T23:48:44.747Z,21.90
2022-10-16T23:51:12.525Z,21.90
2022-10-16T23:53:40.343Z,22.00
2022-10-16T23:56:08.884Z,22.00
2022-10-16T23:58:36.690Z,22.10
